Corcovado — 9HA3971 — position and weather

sailwx.info

Track history (hours):
 
Tides and Currents Weather Stations Pressure Air Temp Water Temp Dewpoint Dewpoint Depression Visibility Wind Speed Wind Dir Waves Ship Positions

Corcovado

Last reported at 2018-Apr-22 21:53 UTC. Time now 2018-Apr-26 06:02 UTC.
Position N 35°58' W 005°32'.

Length 207 m; draft 11.1 m.

Type: Ship (hazmat cat B). MMSI: 256634000.

Date/timePositionNaut miles runAvg speedWind from/ knotsBaromVisibWave heightAir tempDewpointWater temp
2018-Apr-22 21:53N 35°58' W 005°32'3 7.8
2018-Apr-22 21:30N 35°58' W 005°28'5 1.7
2018-Apr-22 18:32N 35°53' W 005°30'3 0.5
2018-Apr-22 12:50N 35°55' W 005°33'2 6.4
2018-Apr-22 12:30N 35°57' W 005°32'3 5.7
2018-Apr-22 12:00N 35°59' W 005°30'5 9.4
2018-Apr-22 11:30N 36°01' W 005°25'5 9.5
2018-Apr-22 11:00N 36°03' W 005°19'5 9.5
2018-Apr-22 10:30N 36°06' W 005°15'3 0.1
2018-Apr-21 15:15N 36°07' W 005°12'310.8
2018-Apr-21 15:00N 36°05' W 005°15'510.1
2018-Apr-21 14:31N 36°03' W 005°20'4 8.4
2018-Apr-21 14:00N 36°06' W 005°23'4 7.1
2018-Apr-21 13:30N 36°09' W 005°26'1 0.3
2018-Apr-21 11:56N 36°09' W 005°26'0 0.0
2018-Apr-21 10:39N 36°09' W 005°26'0 0.0
2018-Apr-21 10:24N 36°09' W 005°26'0 0.0
2018-Apr-21 09:58N 36°09' W 005°26'0 0.0
2018-Apr-21 09:25N 36°09' W 005°26'0 0.0
2018-Apr-21 08:52N 36°09' W 005°26'0 0.0
2018-Apr-21 08:28N 36°09' W 005°26'0 0.0
2018-Apr-21 06:03N 36°09' W 005°26'0 0.0
2018-Apr-21 05:59N 36°09' W 005°26'0 0.0
2018-Apr-21 05:24N 36°09' W 005°26'0 0.0
2018-Apr-21 04:59N 36°09' W 005°26'0 0.0
2018-Apr-21 04:26N 36°09' W 005°26'0 0.0
2018-Apr-21 04:00N 36°09' W 005°26'0 0.0
2018-Apr-21 03:18N 36°09' W 005°26'0 0.0
2018-Apr-21 02:52N 36°09' W 005°26'0 0.0
2018-Apr-21 02:25N 36°09' W 005°26'0 0.0
2018-Apr-21 02:00N 36°09' W 005°26'0 0.0
2018-Apr-21 01:30N 36°09' W 005°26'0 0.0
2018-Apr-21 00:43N 36°09' W 005°26'0 0.0
2018-Apr-21 00:30N 36°09' W 005°26'0 0.0
2018-Apr-20 22:54N 36°09' W 005°26'2 4.4
2018-Apr-20 22:31N 36°08' W 005°24'3 5.8
2018-Apr-20 22:01N 36°06' W 005°23'3 6.7
2018-Apr-20 21:30N 36°03' W 005°20'611.2
2018-Apr-20 21:01N 36°03' W 005°14'  
2018-Apr-18 03:53N 36°41' E 013°20'614.8
2018-Apr-18 03:30N 36°39' E 013°26'715.0
2018-Apr-18 03:01N 36°36' E 013°35'714.7
2018-Apr-18 02:30N 36°33' E 013°44'714.7
2018-Apr-18 02:01N 36°30' E 013°52'815.1
2018-Apr-18 01:29N 36°27' E 014°01'715.4
2018-Apr-18 01:00N 36°24' E 014°09'816.8
2018-Apr-18 00:30N 36°20' E 014°19'714.0
2018-Apr-17 23:59N 36°17' E 014°27'815.3
2018-Apr-17 23:27N 36°13' E 014°36'715.7
2018-Apr-17 23:00N 36°10' E 014°44'714.4
2018-Apr-17 22:30N 36°08' E 014°52'715.0
2018-Apr-17 22:00N 36°05' E 015°00'814.9
2018-Apr-17 21:29N 36°02' E 015°09'714.6
2018-Apr-17 21:00N 36°01' E 015°18'1015.1
2018-Apr-17 20:21N 35°58' E 015°30'515.3
2018-Apr-17 20:00N 35°56' E 015°36'74914.6
2018-Apr-15 16:37N 32°19' E 030°01'6714.6
2018-Apr-15 12:02N 32°00' E 031°17'114.8
2018-Apr-15 12:00N 32°00' E 031°17'4214.6
2018-Apr-15 09:08N 31°42' E 032°02'16 0.5
2018-Apr-14 00:07N 31°52' E 031°47'110.8
2018-Apr-14 00:01N 31°52' E 031°46'1110.8
2018-Apr-13 23:01N 32°00' E 031°37'710.9
2018-Apr-13 22:22N 32°06' E 031°32'411.2
2018-Apr-13 22:01N 32°09' E 031°29'711.4
2018-Apr-13 21:24N 32°14' E 031°23'611.5
2018-Apr-13 20:51N 32°19' E 031°18'7 9.8
2018-Apr-13 20:10N 32°24' E 031°13'411.0
2018-Apr-13 19:49N 32°27' E 031°10'510.8
2018-Apr-13 19:21N 32°30' E 031°06'2010.8
2018-Apr-13 17:31N 32°45' E 030°50'011.3
2018-Apr-13 17:30N 32°45' E 030°50'911.1
2018-Apr-13 16:42N 32°52' E 030°43'1011.1
2018-Apr-13 15:47N 32°60' E 030°35'310.8
2018-Apr-13 15:27N 33°02' E 030°33'610.6
2018-Apr-13 14:55N 33°06' E 030°28'910.5
2018-Apr-13 14:06N 33°13' E 030°21'110.7
2018-Apr-13 13:59N 33°14' E 030°20'510.6
2018-Apr-13 13:30N 33°17' E 030°16'510.8
2018-Apr-13 13:00N 33°21' E 030°11'510.3
2018-Apr-13 12:30N 33°25' E 030°07'510.6
2018-Apr-13 12:00N 33°30' E 030°04'610.6
2018-Apr-13 11:28N 33°34' E 029°59'510.6
2018-Apr-13 10:59N 33°38' E 029°55'510.5
2018-Apr-13 10:30N 33°41' E 029°51'910.3
2018-Apr-13 09:41N 33°48' E 029°44'210.2
2018-Apr-13 09:30N 33°49' E 029°43'610.3
2018-Apr-13 08:56N 33°53' E 029°38'510.6
2018-Apr-13 08:27N 33°57' E 029°34'610.8
2018-Apr-13 07:56N 34°01' E 029°30'1112.6
2018-Apr-13 07:02N 34°10' E 029°20'  
Track history (hours):
 
Tides and Currents Weather Stations Pressure Air Temp Water Temp Dewpoint Dewpoint Depression Visibility Wind Speed Wind Dir Waves Ship Positions

Corcovado

Last reported at 2018-Apr-22 21:53 UTC. Time now 2018-Apr-26 06:02 UTC.
Position N 35°58' W 005°32'.

Length 207 m; draft 11.1 m.

Type: Ship (hazmat cat B). MMSI: 256634000.

Date/timePositionNaut miles runAvg speedWind from/ knotsBaromVisibWave heightAir tempDewpointWater temp
2018-Apr-22 21:53N 35°58' W 005°32'3 7.8
2018-Apr-22 21:30N 35°58' W 005°28'5 1.7
2018-Apr-22 18:32N 35°53' W 005°30'3 0.5
2018-Apr-22 12:50N 35°55' W 005°33'2 6.4
2018-Apr-22 12:30N 35°57' W 005°32'3 5.7
2018-Apr-22 12:00N 35°59' W 005°30'5 9.4
2018-Apr-22 11:30N 36°01' W 005°25'5 9.5
2018-Apr-22 11:00N 36°03' W 005°19'5 9.5
2018-Apr-22 10:30N 36°06' W 005°15'3 0.1
2018-Apr-21 15:15N 36°07' W 005°12'310.8
2018-Apr-21 15:00N 36°05' W 005°15'510.1
2018-Apr-21 14:31N 36°03' W 005°20'4 8.4
2018-Apr-21 14:00N 36°06' W 005°23'4 7.1
2018-Apr-21 13:30N 36°09' W 005°26'1 0.3
2018-Apr-21 11:56N 36°09' W 005°26'0 0.0
2018-Apr-21 10:39N 36°09' W 005°26'0 0.0
2018-Apr-21 10:24N 36°09' W 005°26'0 0.0
2018-Apr-21 09:58N 36°09' W 005°26'0 0.0
2018-Apr-21 09:25N 36°09' W 005°26'0 0.0
2018-Apr-21 08:52N 36°09' W 005°26'0 0.0
2018-Apr-21 08:28N 36°09' W 005°26'0 0.0
2018-Apr-21 06:03N 36°09' W 005°26'0 0.0
2018-Apr-21 05:59N 36°09' W 005°26'0 0.0
2018-Apr-21 05:24N 36°09' W 005°26'0 0.0
2018-Apr-21 04:59N 36°09' W 005°26'0 0.0
2018-Apr-21 04:26N 36°09' W 005°26'0 0.0
2018-Apr-21 04:00N 36°09' W 005°26'0 0.0
2018-Apr-21 03:18N 36°09' W 005°26'0 0.0
2018-Apr-21 02:52N 36°09' W 005°26'0 0.0
2018-Apr-21 02:25N 36°09' W 005°26'0 0.0
2018-Apr-21 02:00N 36°09' W 005°26'0 0.0
2018-Apr-21 01:30N 36°09' W 005°26'0 0.0
2018-Apr-21 00:43N 36°09' W 005°26'0 0.0
2018-Apr-21 00:30N 36°09' W 005°26'0 0.0
2018-Apr-20 22:54N 36°09' W 005°26'2 4.4
2018-Apr-20 22:31N 36°08' W 005°24'3 5.8
2018-Apr-20 22:01N 36°06' W 005°23'3 6.7
2018-Apr-20 21:30N 36°03' W 005°20'611.2
2018-Apr-20 21:01N 36°03' W 005°14'  
2018-Apr-18 03:53N 36°41' E 013°20'614.8
2018-Apr-18 03:30N 36°39' E 013°26'715.0
2018-Apr-18 03:01N 36°36' E 013°35'714.7
2018-Apr-18 02:30N 36°33' E 013°44'714.7
2018-Apr-18 02:01N 36°30' E 013°52'815.1
2018-Apr-18 01:29N 36°27' E 014°01'715.4
2018-Apr-18 01:00N 36°24' E 014°09'816.8
2018-Apr-18 00:30N 36°20' E 014°19'714.0
2018-Apr-17 23:59N 36°17' E 014°27'815.3
2018-Apr-17 23:27N 36°13' E 014°36'715.7
2018-Apr-17 23:00N 36°10' E 014°44'714.4
2018-Apr-17 22:30N 36°08' E 014°52'715.0
2018-Apr-17 22:00N 36°05' E 015°00'814.9
2018-Apr-17 21:29N 36°02' E 015°09'714.6
2018-Apr-17 21:00N 36°01' E 015°18'1015.1
2018-Apr-17 20:21N 35°58' E 015°30'515.3
2018-Apr-17 20:00N 35°56' E 015°36'74914.6
2018-Apr-15 16:37N 32°19' E 030°01'6714.6
2018-Apr-15 12:02N 32°00' E 031°17'114.8
2018-Apr-15 12:00N 32°00' E 031°17'4214.6
2018-Apr-15 09:08N 31°42' E 032°02'16 0.5
2018-Apr-14 00:07N 31°52' E 031°47'110.8
2018-Apr-14 00:01N 31°52' E 031°46'1110.8
2018-Apr-13 23:01N 32°00' E 031°37'710.9
2018-Apr-13 22:22N 32°06' E 031°32'411.2
2018-Apr-13 22:01N 32°09' E 031°29'711.4
2018-Apr-13 21:24N 32°14' E 031°23'611.5
2018-Apr-13 20:51N 32°19' E 031°18'7 9.8
2018-Apr-13 20:10N 32°24' E 031°13'411.0
2018-Apr-13 19:49N 32°27' E 031°10'510.8
2018-Apr-13 19:21N 32°30' E 031°06'2010.8
2018-Apr-13 17:31N 32°45' E 030°50'011.3
2018-Apr-13 17:30N 32°45' E 030°50'911.1
2018-Apr-13 16:42N 32°52' E 030°43'1011.1
2018-Apr-13 15:47N 32°60' E 030°35'310.8
2018-Apr-13 15:27N 33°02' E 030°33'610.6
2018-Apr-13 14:55N 33°06' E 030°28'910.5
2018-Apr-13 14:06N 33°13' E 030°21'110.7
2018-Apr-13 13:59N 33°14' E 030°20'510.6
2018-Apr-13 13:30N 33°17' E 030°16'510.8
2018-Apr-13 13:00N 33°21' E 030°11'510.3
2018-Apr-13 12:30N 33°25' E 030°07'510.6
2018-Apr-13 12:00N 33°30' E 030°04'610.6
2018-Apr-13 11:28N 33°34' E 029°59'510.6
2018-Apr-13 10:59N 33°38' E 029°55'510.5
2018-Apr-13 10:30N 33°41' E 029°51'910.3
2018-Apr-13 09:41N 33°48' E 029°44'210.2
2018-Apr-13 09:30N 33°49' E 029°43'610.3
2018-Apr-13 08:56N 33°53' E 029°38'510.6
2018-Apr-13 08:27N 33°57' E 029°34'610.8
2018-Apr-13 07:56N 34°01' E 029°30'1112.6
2018-Apr-13 07:02N 34°10' E 029°20'  

Dump ship's entire track history